sensor_id;sensor_type;location;lat;lon;timestamp;P1;durP1;ratioP1;P2;durP2;ratioP2
72065;SDS011;59939;52.516;13.420;2023-02-26T00:00:29;7.43;;;2.97;;
72065;SDS011;59939;52.516;13.420;2023-02-26T00:03:33;5.07;;;2.60;;
72065;SDS011;59939;52.516;13.420;2023-02-26T00:06:40;8.70;;;3.30;;
72065;SDS011;59939;52.516;13.420;2023-02-26T00:09:58;6.60;;;2.70;;
72065;SDS011;59939;52.516;13.420;2023-02-26T00:13:02;7.33;;;3.10;;
72065;SDS011;59939;52.516;13.420;2023-02-26T00:19:24;7.43;;;2.90;;
72065;SDS011;59939;52.516;13.420;2023-02-26T00:22:28;9.33;;;4.00;;
72065;SDS011;59939;52.516;13.420;2023-02-26T00:25:32;8.13;;;2.97;;
72065;SDS011;59939;52.516;13.420;2023-02-26T00:28:36;7.97;;;2.80;;
72065;SDS011;59939;52.516;13.420;2023-02-26T00:31:40;4.90;;;2.80;;
72065;SDS011;59939;52.516;13.420;2023-02-26T00:34:45;5.13;;;2.90;;
72065;SDS011;59939;52.516;13.420;2023-02-26T00:40:56;7.80;;;3.13;;
72065;SDS011;59939;52.516;13.420;2023-02-26T00:44:00;5.53;;;2.90;;
72065;SDS011;59939;52.516;13.420;2023-02-26T00:47:07;4.63;;;2.80;;
72065;SDS011;59939;52.516;13.420;2023-02-26T00:50:15;6.27;;;3.30;;
72065;SDS011;59939;52.516;13.420;2023-02-26T00:53:33;4.77;;;2.60;;
72065;SDS011;59939;52.516;13.420;2023-02-26T00:56:38;7.37;;;2.97;;
72065;SDS011;59939;52.516;13.420;2023-02-26T00:59:42;5.47;;;2.53;;
72065;SDS011;59939;52.516;13.420;2023-02-26T01:02:49;7.00;;;3.07;;
72065;SDS011;59939;52.516;13.420;2023-02-26T01:05:53;6.37;;;3.07;;
72065;SDS011;59939;52.516;13.420;2023-02-26T01:12:09;7.23;;;3.00;;
72065;SDS011;59939;52.516;13.420;2023-02-26T01:15:14;6.57;;;3.23;;
72065;SDS011;59939;52.516;13.420;2023-02-26T01:18:23;10.13;;;3.13;;
72065;SDS011;59939;52.516;13.420;2023-02-26T01:21:30;5.63;;;3.00;;
72065;SDS011;59939;52.516;13.420;2023-02-26T01:24:35;5.37;;;2.80;;
72065;SDS011;59939;52.516;13.420;2023-02-26T01:27:39;6.97;;;3.00;;
72065;SDS011;59939;52.516;13.420;2023-02-26T01:30:43;4.03;;;2.77;;
72065;SDS011;59939;52.516;13.420;2023-02-26T01:33:52;10.23;;;3.30;;
72065;SDS011;59939;52.516;13.420;2023-02-26T01:37:19;4.97;;;2.60;;
72065;SDS011;59939;52.516;13.420;2023-02-26T01:40:33;10.77;;;3.33;;
72065;SDS011;59939;52.516;13.420;2023-02-26T01:46:51;6.47;;;2.93;;
72065;SDS011;59939;52.516;13.420;2023-02-26T01:49:57;6.03;;;3.00;;
72065;SDS011;59939;52.516;13.420;2023-02-26T01:53:15;7.17;;;3.37;;
72065;SDS011;59939;52.516;13.420;2023-02-26T01:56:19;6.63;;;3.70;;
72065;SDS011;59939;52.516;13.420;2023-02-26T01:59:24;7.63;;;2.80;;
72065;SDS011;59939;52.516;13.420;2023-02-26T02:02:27;5.57;;;3.10;;
72065;SDS011;59939;52.516;13.420;2023-02-26T02:05:35;7.57;;;3.23;;
72065;SDS011;59939;52.516;13.420;2023-02-26T02:08:42;4.93;;;2.90;;
72065;SDS011;59939;52.516;13.420;2023-02-26T02:11:59;6.83;;;3.30;;
72065;SDS011;59939;52.516;13.420;2023-02-26T02:15:13;8.80;;;3.17;;
72065;SDS011;59939;52.516;13.420;2023-02-26T02:18:34;11.03;;;2.80;;
72065;SDS011;59939;52.516;13.420;2023-02-26T02:21:43;7.13;;;2.83;;
72065;SDS011;59939;52.516;13.420;2023-02-26T02:31:07;6.03;;;2.70;;
72065;SDS011;59939;52.516;13.420;2023-02-26T02:34:18;6.93;;;2.60;;
72065;SDS011;59939;52.516;13.420;2023-02-26T02:37:28;9.37;;;2.77;;
72065;SDS011;59939;52.516;13.420;2023-02-26T02:40:34;5.57;;;2.80;;
72065;SDS011;59939;52.516;13.420;2023-02-26T02:43:39;8.97;;;2.63;;
72065;SDS011;59939;52.516;13.420;2023-02-26T02:46:44;6.13;;;2.40;;
72065;SDS011;59939;52.516;13.420;2023-02-26T02:50:04;8.07;;;2.57;;
72065;SDS011;59939;52.516;13.420;2023-02-26T02:53:12;3.40;;;2.67;;
72065;SDS011;59939;52.516;13.420;2023-02-26T02:56:53;6.23;;;2.80;;
72065;SDS011;59939;52.516;13.420;2023-02-26T02:59:53;4.07;;;2.40;;
72065;SDS011;59939;52.516;13.420;2023-02-26T03:06:21;3.37;;;2.50;;
72065;SDS011;59939;52.516;13.420;2023-02-26T03:09:25;9.03;;;3.23;;
72065;SDS011;59939;52.516;13.420;2023-02-26T03:12:32;5.97;;;2.57;;
72065;SDS011;59939;52.516;13.420;2023-02-26T03:22:05;8.90;;;2.60;;
72065;SDS011;59939;52.516;13.420;2023-02-26T03:25:28;6.80;;;2.53;;
72065;SDS011;59939;52.516;13.420;2023-02-26T03:28:37;9.57;;;2.87;;
72065;SDS011;59939;52.516;13.420;2023-02-26T03:31:54;7.43;;;2.63;;
72065;SDS011;59939;52.516;13.420;2023-02-26T03:35:01;8.37;;;2.97;;
72065;SDS011;59939;52.516;13.420;2023-02-26T03:38:09;10.83;;;2.83;;
72065;SDS011;59939;52.516;13.420;2023-02-26T03:41:19;5.30;;;2.57;;
72065;SDS011;59939;52.516;13.420;2023-02-26T03:44:28;9.53;;;2.60;;
72065;SDS011;59939;52.516;13.420;2023-02-26T03:47:33;7.87;;;2.63;;
72065;SDS011;59939;52.516;13.420;2023-02-26T03:50:43;6.63;;;2.50;;
72065;SDS011;59939;52.516;13.420;2023-02-26T03:54:14;9.93;;;2.93;;
72065;SDS011;59939;52.516;13.420;2023-02-26T03:57:25;7.40;;;2.30;;
72065;SDS011;59939;52.516;13.420;2023-02-26T04:00:46;4.07;;;2.50;;
72065;SDS011;59939;52.516;13.420;2023-02-26T04:04:04;4.83;;;2.60;;
72065;SDS011;59939;52.516;13.420;2023-02-26T04:07:11;8.23;;;2.60;;
72065;SDS011;59939;52.516;13.420;2023-02-26T04:10:17;5.60;;;2.50;;
72065;SDS011;59939;52.516;13.420;2023-02-26T04:13:22;9.33;;;2.67;;
72065;SDS011;59939;52.516;13.420;2023-02-26T04:16:26;9.90;;;2.73;;
72065;SDS011;59939;52.516;13.420;2023-02-26T04:19:31;5.30;;;2.50;;
72065;SDS011;59939;52.516;13.420;2023-02-26T04:22:35;11.00;;;3.03;;
72065;SDS011;59939;52.516;13.420;2023-02-26T04:25:39;5.00;;;2.70;;
72065;SDS011;59939;52.516;13.420;2023-02-26T04:28:44;9.63;;;2.90;;
72065;SDS011;59939;52.516;13.420;2023-02-26T04:31:48;8.13;;;2.70;;
72065;SDS011;59939;52.516;13.420;2023-02-26T04:34:52;4.27;;;2.40;;
72065;SDS011;59939;52.516;13.420;2023-02-26T04:37:57;10.37;;;3.03;;
72065;SDS011;59939;52.516;13.420;2023-02-26T04:41:01;9.47;;;3.23;;
72065;SDS011;59939;52.516;13.420;2023-02-26T04:44:05;5.03;;;2.63;;
72065;SDS011;59939;52.516;13.420;2023-02-26T04:47:10;6.57;;;2.80;;
72065;SDS011;59939;52.516;13.420;2023-02-26T04:50:14;4.03;;;2.30;;
72065;SDS011;59939;52.516;13.420;2023-02-26T04:53:19;7.83;;;3.13;;
72065;SDS011;59939;52.516;13.420;2023-02-26T04:56:24;5.83;;;2.53;;
72065;SDS011;59939;52.516;13.420;2023-02-26T04:59:29;7.27;;;2.30;;
72065;SDS011;59939;52.516;13.420;2023-02-26T05:02:33;7.17;;;2.43;;
72065;SDS011;59939;52.516;13.420;2023-02-26T05:05:38;6.10;;;2.40;;
72065;SDS011;59939;52.516;13.420;2023-02-26T05:08:42;6.13;;;2.30;;
72065;SDS011;59939;52.516;13.420;2023-02-26T05:11:46;14.27;;;2.70;;
72065;SDS011;59939;52.516;13.420;2023-02-26T05:14:51;7.50;;;2.30;;
72065;SDS011;59939;52.516;13.420;2023-02-26T05:17:54;3.83;;;2.00;;
72065;SDS011;59939;52.516;13.420;2023-02-26T05:20:58;7.33;;;2.53;;
72065;SDS011;59939;52.516;13.420;2023-02-26T05:24:01;4.90;;;2.23;;
72065;SDS011;59939;52.516;13.420;2023-02-26T05:27:06;5.10;;;2.10;;
72065;SDS011;59939;52.516;13.420;2023-02-26T05:30:13;6.50;;;3.30;;
72065;SDS011;59939;52.516;13.420;2023-02-26T05:33:19;3.43;;;1.97;;
72065;SDS011;59939;52.516;13.420;2023-02-26T05:36:23;7.63;;;2.33;;
72065;SDS011;59939;52.516;13.420;2023-02-26T05:39:27;4.07;;;2.10;;
72065;SDS011;59939;52.516;13.420;2023-02-26T05:42:31;3.77;;;2.43;;
72065;SDS011;59939;52.516;13.420;2023-02-26T05:45:34;6.57;;;1.80;;
72065;SDS011;59939;52.516;13.420;2023-02-26T05:48:38;5.67;;;1.80;;
72065;SDS011;59939;52.516;13.420;2023-02-26T05:51:42;3.10;;;1.73;;
72065;SDS011;59939;52.516;13.420;2023-02-26T05:54:45;5.33;;;1.90;;
72065;SDS011;59939;52.516;13.420;2023-02-26T05:57:53;5.90;;;2.23;;
72065;SDS011;59939;52.516;13.420;2023-02-26T06:00:57;5.63;;;2.03;;
72065;SDS011;59939;52.516;13.420;2023-02-26T06:04:03;8.80;;;2.20;;
72065;SDS011;59939;52.516;13.420;2023-02-26T06:07:08;3.70;;;2.00;;
72065;SDS011;59939;52.516;13.420;2023-02-26T06:10:11;4.80;;;2.20;;
72065;SDS011;59939;52.516;13.420;2023-02-26T06:13:15;4.00;;;1.90;;
72065;SDS011;59939;52.516;13.420;2023-02-26T06:16:20;7.73;;;2.00;;
72065;SDS011;59939;52.516;13.420;2023-02-26T06:19:38;4.47;;;1.90;;
72065;SDS011;59939;52.516;13.420;2023-02-26T06:22:42;9.23;;;2.87;;
72065;SDS011;59939;52.516;13.420;2023-02-26T06:25:46;7.30;;;2.00;;
72065;SDS011;59939;52.516;13.420;2023-02-26T06:28:58;4.43;;;1.97;;
72065;SDS011;59939;52.516;13.420;2023-02-26T06:32:02;6.63;;;2.10;;
72065;SDS011;59939;52.516;13.420;2023-02-26T06:35:10;4.77;;;1.93;;
72065;SDS011;59939;52.516;13.420;2023-02-26T06:38:14;6.10;;;1.83;;
72065;SDS011;59939;52.516;13.420;2023-02-26T06:41:18;5.03;;;2.00;;
72065;SDS011;59939;52.516;13.420;2023-02-26T06:44:22;4.27;;;2.20;;
72065;SDS011;59939;52.516;13.420;2023-02-26T06:47:25;4.90;;;2.17;;
72065;SDS011;59939;52.516;13.420;2023-02-26T06:50:36;5.80;;;1.90;;
72065;SDS011;59939;52.516;13.420;2023-02-26T06:53:40;5.93;;;2.07;;
72065;SDS011;59939;52.516;13.420;2023-02-26T06:56:44;8.27;;;2.20;;
72065;SDS011;59939;52.516;13.420;2023-02-26T06:59:51;4.93;;;2.00;;
72065;SDS011;59939;52.516;13.420;2023-02-26T07:03:02;7.37;;;2.20;;
72065;SDS011;59939;52.516;13.420;2023-02-26T07:06:14;6.60;;;2.10;;
72065;SDS011;59939;52.516;13.420;2023-02-26T07:09:30;6.43;;;2.30;;
72065;SDS011;59939;52.516;13.420;2023-02-26T07:12:33;3.30;;;2.13;;
72065;SDS011;59939;52.516;13.420;2023-02-26T07:15:37;6.60;;;2.43;;
72065;SDS011;59939;52.516;13.420;2023-02-26T07:18:40;5.87;;;2.50;;
72065;SDS011;59939;52.516;13.420;2023-02-26T07:21:45;9.57;;;2.47;;
72065;SDS011;59939;52.516;13.420;2023-02-26T07:24:49;4.07;;;2.30;;
72065;SDS011;59939;52.516;13.420;2023-02-26T07:27:54;6.60;;;2.37;;
72065;SDS011;59939;52.516;13.420;2023-02-26T07:30:59;2.80;;;2.00;;
72065;SDS011;59939;52.516;13.420;2023-02-26T07:34:03;4.50;;;2.10;;
72065;SDS011;59939;52.516;13.420;2023-02-26T07:37:07;4.37;;;2.13;;
72065;SDS011;59939;52.516;13.420;2023-02-26T07:40:11;5.90;;;2.40;;
72065;SDS011;59939;52.516;13.420;2023-02-26T07:43:15;8.50;;;2.40;;
72065;SDS011;59939;52.516;13.420;2023-02-26T07:46:26;4.23;;;2.37;;
72065;SDS011;59939;52.516;13.420;2023-02-26T07:49:32;4.70;;;2.13;;
72065;SDS011;59939;52.516;13.420;2023-02-26T07:52:36;4.60;;;2.03;;
72065;SDS011;59939;52.516;13.420;2023-02-26T07:55:40;6.63;;;2.40;;
72065;SDS011;59939;52.516;13.420;2023-02-26T07:58:45;6.57;;;2.00;;
72065;SDS011;59939;52.516;13.420;2023-02-26T08:01:50;7.50;;;2.23;;
72065;SDS011;59939;52.516;13.420;2023-02-26T08:04:54;10.27;;;3.73;;
72065;SDS011;59939;52.516;13.420;2023-02-26T08:07:58;6.37;;;2.30;;
72065;SDS011;59939;52.516;13.420;2023-02-26T08:11:06;8.80;;;2.30;;
72065;SDS011;59939;52.516;13.420;2023-02-26T08:14:10;4.63;;;1.73;;
72065;SDS011;59939;52.516;13.420;2023-02-26T08:17:16;12.80;;;2.47;;
72065;SDS011;59939;52.516;13.420;2023-02-26T08:20:20;6.10;;;1.77;;
72065;SDS011;59939;52.516;13.420;2023-02-26T08:23:24;4.50;;;1.80;;
72065;SDS011;59939;52.516;13.420;2023-02-26T08:26:29;5.07;;;1.70;;
72065;SDS011;59939;52.516;13.420;2023-02-26T08:29:32;5.37;;;1.73;;
72065;SDS011;59939;52.516;13.420;2023-02-26T08:32:39;6.23;;;1.77;;
72065;SDS011;59939;52.516;13.420;2023-02-26T08:35:48;4.57;;;1.87;;
72065;SDS011;59939;52.516;13.420;2023-02-26T08:38:52;3.47;;;1.77;;
72065;SDS011;59939;52.516;13.420;2023-02-26T08:41:55;7.27;;;2.13;;
72065;SDS011;59939;52.516;13.420;2023-02-26T08:45:01;2.27;;;1.83;;
72065;SDS011;59939;52.516;13.420;2023-02-26T08:48:05;6.03;;;1.97;;
72065;SDS011;59939;52.516;13.420;2023-02-26T08:51:11;4.73;;;1.90;;
72065;SDS011;59939;52.516;13.420;2023-02-26T08:54:16;6.87;;;1.97;;
72065;SDS011;59939;52.516;13.420;2023-02-26T08:57:20;5.07;;;1.77;;
72065;SDS011;59939;52.516;13.420;2023-02-26T09:00:24;6.73;;;2.20;;
72065;SDS011;59939;52.516;13.420;2023-02-26T09:03:28;4.00;;;1.83;;
72065;SDS011;59939;52.516;13.420;2023-02-26T09:06:32;8.97;;;1.83;;
72065;SDS011;59939;52.516;13.420;2023-02-26T09:09:35;5.87;;;2.00;;
72065;SDS011;59939;52.516;13.420;2023-02-26T09:12:47;7.17;;;2.00;;
72065;SDS011;59939;52.516;13.420;2023-02-26T09:15:50;9.03;;;1.70;;
72065;SDS011;59939;52.516;13.420;2023-02-26T09:18:58;16.80;;;7.23;;
72065;SDS011;59939;52.516;13.420;2023-02-26T09:22:05;7.80;;;2.10;;
72065;SDS011;59939;52.516;13.420;2023-02-26T09:25:17;4.23;;;1.50;;
72065;SDS011;59939;52.516;13.420;2023-02-26T09:28:22;4.60;;;1.80;;
72065;SDS011;59939;52.516;13.420;2023-02-26T09:31:30;6.00;;;2.23;;
72065;SDS011;59939;52.516;13.420;2023-02-26T09:34:37;7.47;;;1.90;;
72065;SDS011;59939;52.516;13.420;2023-02-26T09:41:27;5.30;;;1.67;;
72065;SDS011;59939;52.516;13.420;2023-02-26T09:44:33;3.87;;;1.50;;
72065;SDS011;59939;52.516;13.420;2023-02-26T09:47:40;7.17;;;1.90;;
72065;SDS011;59939;52.516;13.420;2023-02-26T09:50:52;7.00;;;1.80;;
72065;SDS011;59939;52.516;13.420;2023-02-26T09:53:57;5.13;;;1.30;;
72065;SDS011;59939;52.516;13.420;2023-02-26T09:57:06;7.63;;;2.13;;
72065;SDS011;59939;52.516;13.420;2023-02-26T10:03:26;6.70;;;1.90;;
72065;SDS011;59939;52.516;13.420;2023-02-26T10:06:36;7.43;;;1.70;;
72065;SDS011;59939;52.516;13.420;2023-02-26T10:13:04;5.37;;;1.77;;
72065;SDS011;59939;52.516;13.420;2023-02-26T10:16:20;3.87;;;1.47;;
72065;SDS011;59939;52.516;13.420;2023-02-26T10:19:31;7.13;;;1.50;;
72065;SDS011;59939;52.516;13.420;2023-02-26T10:22:41;7.10;;;1.60;;
72065;SDS011;59939;52.516;13.420;2023-02-26T10:29:38;9.43;;;2.00;;
72065;SDS011;59939;52.516;13.420;2023-02-26T10:32:58;4.00;;;1.57;;
72065;SDS011;59939;52.516;13.420;2023-02-26T10:40:00;2.47;;;1.40;;
72065;SDS011;59939;52.516;13.420;2023-02-26T10:42:58;2.37;;;1.43;;
72065;SDS011;59939;52.516;13.420;2023-02-26T10:52:36;3.20;;;1.50;;
72065;SDS011;59939;52.516;13.420;2023-02-26T10:58:53;3.40;;;1.40;;
72065;SDS011;59939;52.516;13.420;2023-02-26T11:05:28;5.07;;;1.30;;
72065;SDS011;59939;52.516;13.420;2023-02-26T11:08:43;3.67;;;1.10;;
72065;SDS011;59939;52.516;13.420;2023-02-26T11:11:54;4.40;;;1.23;;
72065;SDS011;59939;52.516;13.420;2023-02-26T11:14:59;6.30;;;1.40;;
72065;SDS011;59939;52.516;13.420;2023-02-26T11:18:04;3.37;;;1.27;;
72065;SDS011;59939;52.516;13.420;2023-02-26T11:21:27;6.87;;;1.40;;
72065;SDS011;59939;52.516;13.420;2023-02-26T11:24:35;3.23;;;1.33;;
72065;SDS011;59939;52.516;13.420;2023-02-26T11:27:39;2.97;;;1.50;;
72065;SDS011;59939;52.516;13.420;2023-02-26T11:30:48;2.87;;;1.33;;
72065;SDS011;59939;52.516;13.420;2023-02-26T11:34:00;6.30;;;1.67;;
72065;SDS011;59939;52.516;13.420;2023-02-26T11:37:04;2.83;;;1.30;;
72065;SDS011;59939;52.516;13.420;2023-02-26T11:40:21;3.43;;;1.20;;
72065;SDS011;59939;52.516;13.420;2023-02-26T11:43:26;2.77;;;1.30;;
72065;SDS011;59939;52.516;13.420;2023-02-26T11:46:38;3.17;;;1.30;;
72065;SDS011;59939;52.516;13.420;2023-02-26T11:49:45;2.87;;;1.13;;
72065;SDS011;59939;52.516;13.420;2023-02-26T11:52:55;2.30;;;1.20;;
72065;SDS011;59939;52.516;13.420;2023-02-26T11:56:01;2.43;;;1.50;;
72065;SDS011;59939;52.516;13.420;2023-02-26T11:59:07;2.13;;;1.10;;
72065;SDS011;59939;52.516;13.420;2023-02-26T12:02:18;2.93;;;1.20;;
72065;SDS011;59939;52.516;13.420;2023-02-26T12:05:26;4.57;;;1.70;;
72065;SDS011;59939;52.516;13.420;2023-02-26T12:08:34;5.27;;;1.23;;
72065;SDS011;59939;52.516;13.420;2023-02-26T12:14:56;6.67;;;1.60;;
72065;SDS011;59939;52.516;13.420;2023-02-26T12:18:11;4.47;;;1.70;;
72065;SDS011;59939;52.516;13.420;2023-02-26T12:24:36;4.93;;;1.63;;
72065;SDS011;59939;52.516;13.420;2023-02-26T12:28:13;6.67;;;1.80;;
72065;SDS011;59939;52.516;13.420;2023-02-26T12:34:55;2.57;;;1.30;;
72065;SDS011;59939;52.516;13.420;2023-02-26T12:38:07;5.47;;;1.10;;
72065;SDS011;59939;52.516;13.420;2023-02-26T12:47:53;3.93;;;1.40;;
72065;SDS011;59939;52.516;13.420;2023-02-26T12:51:21;6.10;;;1.63;;
72065;SDS011;59939;52.516;13.420;2023-02-26T12:54:33;1.87;;;1.17;;
72065;SDS011;59939;52.516;13.420;2023-02-26T13:01:02;4.03;;;1.57;;
72065;SDS011;59939;52.516;13.420;2023-02-26T13:07:26;5.13;;;1.63;;
72065;SDS011;59939;52.516;13.420;2023-02-26T13:14:17;5.37;;;1.43;;
72065;SDS011;59939;52.516;13.420;2023-02-26T13:20:57;5.53;;;1.50;;
72065;SDS011;59939;52.516;13.420;2023-02-26T13:24:05;3.37;;;1.50;;
72065;SDS011;59939;52.516;13.420;2023-02-26T13:27:11;3.20;;;1.40;;
72065;SDS011;59939;52.516;13.420;2023-02-26T13:30:34;4.47;;;1.20;;
72065;SDS011;59939;52.516;13.420;2023-02-26T13:33:40;4.27;;;1.83;;
72065;SDS011;59939;52.516;13.420;2023-02-26T13:36:45;3.30;;;1.63;;
72065;SDS011;59939;52.516;13.420;2023-02-26T13:43:36;8.83;;;1.43;;
72065;SDS011;59939;52.516;13.420;2023-02-26T13:47:06;5.73;;;1.30;;
72065;SDS011;59939;52.516;13.420;2023-02-26T13:56:46;5.10;;;1.30;;
72065;SDS011;59939;52.516;13.420;2023-02-26T13:59:52;5.23;;;1.30;;
72065;SDS011;59939;52.516;13.420;2023-02-26T14:02:57;3.87;;;1.40;;
72065;SDS011;59939;52.516;13.420;2023-02-26T14:12:35;4.27;;;1.50;;
72065;SDS011;59939;52.516;13.420;2023-02-26T14:15:40;5.03;;;1.30;;
72065;SDS011;59939;52.516;13.420;2023-02-26T14:21:50;4.60;;;1.33;;
72065;SDS011;59939;52.516;13.420;2023-02-26T14:28:17;3.37;;;1.60;;
72065;SDS011;59939;52.516;13.420;2023-02-26T14:31:22;2.63;;;1.27;;
72065;SDS011;59939;52.516;13.420;2023-02-26T14:34:29;3.17;;;1.23;;
72065;SDS011;59939;52.516;13.420;2023-02-26T14:37:34;2.70;;;1.30;;
72065;SDS011;59939;52.516;13.420;2023-02-26T14:40:46;5.67;;;1.37;;
72065;SDS011;59939;52.516;13.420;2023-02-26T14:44:01;5.97;;;1.83;;
72065;SDS011;59939;52.516;13.420;2023-02-26T14:47:07;2.87;;;1.20;;
72065;SDS011;59939;52.516;13.420;2023-02-26T14:50:13;3.27;;;1.37;;
72065;SDS011;59939;52.516;13.420;2023-02-26T14:53:32;3.00;;;1.27;;
72065;SDS011;59939;52.516;13.420;2023-02-26T15:06:54;2.47;;;1.30;;
72065;SDS011;59939;52.516;13.420;2023-02-26T15:10:23;1.73;;;1.20;;
72065;SDS011;59939;52.516;13.420;2023-02-26T15:13:42;4.23;;;1.30;;
72065;SDS011;59939;52.516;13.420;2023-02-26T15:17:10;4.23;;;1.23;;
72065;SDS011;59939;52.516;13.420;2023-02-26T15:20:32;3.77;;;1.40;;
72065;SDS011;59939;52.516;13.420;2023-02-26T15:23:46;3.00;;;1.27;;
72065;SDS011;59939;52.516;13.420;2023-02-26T15:26:52;1.90;;;1.30;;
72065;SDS011;59939;52.516;13.420;2023-02-26T15:29:57;2.77;;;1.20;;
72065;SDS011;59939;52.516;13.420;2023-02-26T15:33:03;4.23;;;1.30;;
72065;SDS011;59939;52.516;13.420;2023-02-26T15:36:10;1.40;;;1.23;;
72065;SDS011;59939;52.516;13.420;2023-02-26T15:39:15;3.57;;;1.23;;
72065;SDS011;59939;52.516;13.420;2023-02-26T15:42:21;2.80;;;1.23;;
72065;SDS011;59939;52.516;13.420;2023-02-26T15:45:33;2.63;;;1.20;;
72065;SDS011;59939;52.516;13.420;2023-02-26T15:48:38;4.23;;;1.20;;
72065;SDS011;59939;52.516;13.420;2023-02-26T15:51:45;1.33;;;1.20;;
72065;SDS011;59939;52.516;13.420;2023-02-26T15:55:03;2.03;;;1.20;;
72065;SDS011;59939;52.516;13.420;2023-02-26T15:58:08;4.33;;;1.27;;
72065;SDS011;59939;52.516;13.420;2023-02-26T16:01:16;2.70;;;1.10;;
72065;SDS011;59939;52.516;13.420;2023-02-26T16:04:24;3.63;;;1.33;;
72065;SDS011;59939;52.516;13.420;2023-02-26T16:07:29;2.30;;;1.40;;
72065;SDS011;59939;52.516;13.420;2023-02-26T16:10:34;6.90;;;1.60;;
72065;SDS011;59939;52.516;13.420;2023-02-26T16:13:41;3.43;;;1.57;;
72065;SDS011;59939;52.516;13.420;2023-02-26T16:16:50;3.90;;;1.50;;
72065;SDS011;59939;52.516;13.420;2023-02-26T16:19:55;2.53;;;1.50;;
72065;SDS011;59939;52.516;13.420;2023-02-26T16:23:03;2.40;;;1.50;;
72065;SDS011;59939;52.516;13.420;2023-02-26T16:26:08;3.50;;;1.47;;
72065;SDS011;59939;52.516;13.420;2023-02-26T16:32:52;4.90;;;1.73;;
72065;SDS011;59939;52.516;13.420;2023-02-26T16:36:05;6.53;;;1.83;;
72065;SDS011;59939;52.516;13.420;2023-02-26T16:39:23;6.60;;;2.10;;
72065;SDS011;59939;52.516;13.420;2023-02-26T16:45:59;4.00;;;1.50;;
72065;SDS011;59939;52.516;13.420;2023-02-26T16:49:05;2.87;;;1.43;;
72065;SDS011;59939;52.516;13.420;2023-02-26T16:52:16;7.00;;;2.00;;
72065;SDS011;59939;52.516;13.420;2023-02-26T16:55:24;3.47;;;1.57;;
72065;SDS011;59939;52.516;13.420;2023-02-26T16:58:28;4.37;;;1.70;;
72065;SDS011;59939;52.516;13.420;2023-02-26T17:01:37;5.53;;;1.90;;
72065;SDS011;59939;52.516;13.420;2023-02-26T17:04:42;6.43;;;1.80;;
72065;SDS011;59939;52.516;13.420;2023-02-26T17:07:55;8.57;;;2.30;;
72065;SDS011;59939;52.516;13.420;2023-02-26T17:11:07;4.77;;;1.80;;
72065;SDS011;59939;52.516;13.420;2023-02-26T17:17:29;7.60;;;1.90;;
72065;SDS011;59939;52.516;13.420;2023-02-26T17:20:35;3.40;;;1.80;;
72065;SDS011;59939;52.516;13.420;2023-02-26T17:23:39;5.77;;;1.93;;
72065;SDS011;59939;52.516;13.420;2023-02-26T17:26:43;5.10;;;2.27;;
72065;SDS011;59939;52.516;13.420;2023-02-26T17:29:48;4.77;;;1.83;;
72065;SDS011;59939;52.516;13.420;2023-02-26T17:32:55;6.13;;;2.07;;
72065;SDS011;59939;52.516;13.420;2023-02-26T17:36:04;4.57;;;2.17;;
72065;SDS011;59939;52.516;13.420;2023-02-26T17:39:10;5.60;;;2.47;;
72065;SDS011;59939;52.516;13.420;2023-02-26T17:42:16;5.77;;;2.17;;
72065;SDS011;59939;52.516;13.420;2023-02-26T17:45:22;7.13;;;2.17;;
72065;SDS011;59939;52.516;13.420;2023-02-26T17:48:26;7.23;;;2.37;;
72065;SDS011;59939;52.516;13.420;2023-02-26T17:51:29;5.53;;;2.73;;
72065;SDS011;59939;52.516;13.420;2023-02-26T17:54:33;5.67;;;1.93;;
72065;SDS011;59939;52.516;13.420;2023-02-26T17:57:37;9.13;;;2.60;;
72065;SDS011;59939;52.516;13.420;2023-02-26T18:00:41;6.93;;;2.77;;
72065;SDS011;59939;52.516;13.420;2023-02-26T18:03:46;9.00;;;2.43;;
72065;SDS011;59939;52.516;13.420;2023-02-26T18:06:52;6.80;;;2.37;;
72065;SDS011;59939;52.516;13.420;2023-02-26T18:09:56;6.40;;;1.97;;
72065;SDS011;59939;52.516;13.420;2023-02-26T18:13:00;5.30;;;1.60;;
72065;SDS011;59939;52.516;13.420;2023-02-26T18:16:05;5.57;;;1.87;;
72065;SDS011;59939;52.516;13.420;2023-02-26T18:19:12;5.90;;;2.00;;
72065;SDS011;59939;52.516;13.420;2023-02-26T18:22:19;4.33;;;1.87;;
72065;SDS011;59939;52.516;13.420;2023-02-26T18:25:23;5.53;;;1.80;;
72065;SDS011;59939;52.516;13.420;2023-02-26T18:28:29;5.83;;;2.03;;
72065;SDS011;59939;52.516;13.420;2023-02-26T18:31:35;5.43;;;1.80;;
72065;SDS011;59939;52.516;13.420;2023-02-26T18:34:40;4.70;;;1.83;;
72065;SDS011;59939;52.516;13.420;2023-02-26T18:37:58;4.80;;;1.90;;
72065;SDS011;59939;52.516;13.420;2023-02-26T18:41:09;5.63;;;2.03;;
72065;SDS011;59939;52.516;13.420;2023-02-26T18:44:27;4.50;;;1.90;;
72065;SDS011;59939;52.516;13.420;2023-02-26T18:47:34;6.47;;;1.90;;
72065;SDS011;59939;52.516;13.420;2023-02-26T18:50:38;6.37;;;2.17;;
72065;SDS011;59939;52.516;13.420;2023-02-26T18:53:45;5.40;;;1.70;;
72065;SDS011;59939;52.516;13.420;2023-02-26T18:56:52;5.13;;;2.03;;
72065;SDS011;59939;52.516;13.420;2023-02-26T18:59:56;5.27;;;2.10;;
72065;SDS011;59939;52.516;13.420;2023-02-26T19:03:00;4.90;;;2.13;;
72065;SDS011;59939;52.516;13.420;2023-02-26T19:06:04;5.37;;;2.10;;
72065;SDS011;59939;52.516;13.420;2023-02-26T19:09:08;5.23;;;2.00;;
72065;SDS011;59939;52.516;13.420;2023-02-26T19:12:13;5.23;;;2.00;;
72065;SDS011;59939;52.516;13.420;2023-02-26T19:15:23;5.97;;;2.20;;
72065;SDS011;59939;52.516;13.420;2023-02-26T19:18:27;5.53;;;2.57;;
72065;SDS011;59939;52.516;13.420;2023-02-26T19:21:45;8.30;;;2.50;;
72065;SDS011;59939;52.516;13.420;2023-02-26T19:24:49;7.70;;;2.50;;
72065;SDS011;59939;52.516;13.420;2023-02-26T19:27:53;7.23;;;2.33;;
72065;SDS011;59939;52.516;13.420;2023-02-26T19:30:57;7.00;;;2.30;;
72065;SDS011;59939;52.516;13.420;2023-02-26T19:34:02;10.60;;;2.50;;
72065;SDS011;59939;52.516;13.420;2023-02-26T19:37:06;6.83;;;2.20;;
72065;SDS011;59939;52.516;13.420;2023-02-26T19:40:16;7.17;;;2.73;;
72065;SDS011;59939;52.516;13.420;2023-02-26T19:43:29;5.87;;;2.10;;
72065;SDS011;59939;52.516;13.420;2023-02-26T19:46:42;8.20;;;2.63;;
72065;SDS011;59939;52.516;13.420;2023-02-26T19:49:48;8.30;;;2.53;;
72065;SDS011;59939;52.516;13.420;2023-02-26T19:52:52;5.20;;;2.37;;
72065;SDS011;59939;52.516;13.420;2023-02-26T19:55:57;7.30;;;2.50;;
72065;SDS011;59939;52.516;13.420;2023-02-26T19:59:03;7.73;;;2.30;;
72065;SDS011;59939;52.516;13.420;2023-02-26T20:02:08;7.93;;;2.70;;
72065;SDS011;59939;52.516;13.420;2023-02-26T20:05:11;5.73;;;2.47;;
72065;SDS011;59939;52.516;13.420;2023-02-26T20:08:20;7.53;;;2.73;;
72065;SDS011;59939;52.516;13.420;2023-02-26T20:11:26;7.93;;;2.60;;
72065;SDS011;59939;52.516;13.420;2023-02-26T20:14:31;8.07;;;2.50;;
72065;SDS011;59939;52.516;13.420;2023-02-26T20:17:42;5.70;;;2.10;;
72065;SDS011;59939;52.516;13.420;2023-02-26T20:20:46;7.00;;;2.53;;
72065;SDS011;59939;52.516;13.420;2023-02-26T20:23:52;6.03;;;2.57;;
72065;SDS011;59939;52.516;13.420;2023-02-26T20:26:57;7.93;;;2.43;;
72065;SDS011;59939;52.516;13.420;2023-02-26T20:30:01;7.87;;;2.60;;
72065;SDS011;59939;52.516;13.420;2023-02-26T20:33:12;7.47;;;2.70;;
72065;SDS011;59939;52.516;13.420;2023-02-26T20:36:19;5.53;;;2.60;;
72065;SDS011;59939;52.516;13.420;2023-02-26T20:39:23;6.93;;;2.77;;
72065;SDS011;59939;52.516;13.420;2023-02-26T20:42:26;7.67;;;2.67;;
72065;SDS011;59939;52.516;13.420;2023-02-26T20:45:30;7.87;;;2.77;;